Terminal Aerodrome Forecast
Issued by NWS

Home | Current Version | Previous Version | Text Only | Print | Product List | Glossary On
Versions: 1 2 3 4 5 6 7 8 9 10 11 12 13 14 15 16 17 18 19 20 21
000
FTUS41 KPBZ 260500 RRA
TAFLBE
TAF
KLBE 260541Z 2606/2706 04006KT 1SM -SN BKN001
      TEMPO 2606/2608 3SM -SN BKN025
     FM261300 09010KT 2SM -SN BR OVC006
     FM262200 01004KT 3SM -SHSN OVC010=

USA.gov is the U.S. government's official web portal to all federal, state and local government web resources and services.